Time;durP1;ratioP1;P1;durP2;ratioP2;P2;SDS_P1;SDS_P2;PMS_P1;PMS_P2;Temp;Humidity;BMP_temperature;BMP_pressure;BME280_temperature;BME280_humidity;BME280_pressure;Samples;Min_cycle;Max_cycle;Signal;HPM_P1;HPM_P2
2022/07/29 00:02:03;;;;;;;1.35;0.00;;;16.60;99.90;;;;;;5053379;28;20021;-73
2022/07/29 00:04:29;;;;;;;3.10;0.35;;;16.60;99.90;;;;;;5053101;28;20013;-73
2022/07/29 00:06:54;;;;;;;0.85;0.00;;;16.50;99.90;;;;;;5053301;28;20029;-73
2022/07/29 00:09:20;;;;;;;2.70;0.05;;;16.50;99.90;;;;;;5052835;28;20497;-73
2022/07/29 00:11:46;;;;;;;0.57;0.30;;;16.50;99.90;;;;;;5053010;28;20025;-73
2022/07/29 00:14:11;;;;;;;0.10;0.00;;;16.50;99.90;;;;;;5053010;28;20033;-73
2022/07/29 00:16:37;;;;;;;1.38;0.00;;;16.50;99.90;;;;;;5053260;28;20017;-73
2022/07/29 00:19:02;;;;;;;1.08;0.00;;;16.40;99.90;;;;;;5053484;28;20061;-74
2022/07/29 00:21:28;;;;;;;0.52;0.00;;;16.40;99.90;;;;;;5052847;28;20458;-73
2022/07/29 00:23:54;;;;;;;0.20;0.00;;;16.30;99.90;;;;;;5054565;28;20083;-73
2022/07/29 00:26:19;;;;;;;0.75;0.00;;;16.30;99.90;;;;;;5055695;28;20017;-73
2022/07/29 00:28:45;;;;;;;1.58;0.00;;;16.30;99.90;;;;;;5056926;28;20064;-73
2022/07/29 00:31:10;;;;;;;0.90;0.25;;;16.20;99.90;;;;;;5055492;28;20025;-73
2022/07/29 00:33:36;;;;;;;1.20;0.03;;;16.20;99.90;;;;;;5055483;28;20108;-72
2022/07/29 00:36:02;;;;;;;0.20;0.00;;;16.20;99.90;;;;;;5057267;28;20453;-73
2022/07/29 00:38:27;;;;;;;1.38;0.00;;;16.20;99.90;;;;;;5056690;28;20029;-72
2022/07/29 00:40:53;;;;;;;1.92;0.10;;;16.10;99.90;;;;;;5056526;28;20025;-73
2022/07/29 00:43:18;;;;;;;1.52;0.00;;;16.10;99.90;;;;;;5056612;28;20040;-73
2022/07/29 00:45:44;;;;;;;1.17;0.00;;;16.00;99.90;;;;;;5057121;28;20029;-73
2022/07/29 00:48:10;;;;;;;0.20;0.00;;;16.00;99.90;;;;;;5056405;28;20074;-73
2022/07/29 00:50:37;;;;;;;0.40;0.00;;;16.00;99.90;;;;;;5056425;28;20017;-73
2022/07/29 00:53:04;;;;;;;0.98;0.00;;;16.00;99.90;;;;;;5056967;28;20024;-73
2022/07/29 00:55:30;;;;;;;0.57;0.05;;;16.00;99.90;;;;;;5056377;28;20013;-72
2022/07/29 00:57:57;;;;;;;0.15;0.00;;;16.00;99.90;;;;;;5056669;28;20025;-73
2022/07/29 01:00:26;;;;;;;2.75;0.52;;;16.00;99.90;;;;;;5054967;28;20078;-72
2022/07/29 01:02:52;;;;;;;1.25;0.00;;;16.10;99.90;;;;;;5056228;28;20091;-73
2022/07/29 01:05:23;;;;;;;0.43;0.00;;;15.90;99.90;;;;;;5056124;28;20029;-73
2022/07/29 01:07:52;;;;;;;1.05;0.00;;;15.90;99.90;;;;;;5056323;28;20029;-73
2022/07/29 01:10:19;;;;;;;0.85;0.00;;;16.00;99.90;;;;;;5056324;28;20075;-73
2022/07/29 01:12:48;;;;;;;1.10;0.00;;;15.90;99.90;;;;;;5056351;28;20032;-73
2022/07/29 01:15:14;;;;;;;;;;;15.90;99.90;;;;;;5055103;28;20013;-73
2022/07/29 01:17:58;;;;;;;2.25;0.30;;;15.90;99.90;;;;;;5056180;28;19904;-73
2022/07/29 01:20:55;;;;;;;1.08;0.00;;;15.90;99.90;;;;;;5055781;28;20060;-73
2022/07/29 01:23:23;;;;;;;1.40;0.03;;;15.90;99.90;;;;;;5056410;28;20032;-72
2022/07/29 01:26:13;;;;;;;0.28;0.00;;;15.80;99.90;;;;;;5055826;28;20024;-72
2022/07/29 01:29:10;;;;;;;2.78;0.10;;;15.70;99.90;;;;;;5055619;28;20394;-73
2022/07/29 01:31:45;;;;;;;0.20;0.00;;;15.70;99.90;;;;;;5056112;28;20478;-73
2022/07/29 01:34:18;;;;;;;1.20;0.00;;;15.60;99.90;;;;;;5054321;28;20486;-73
2022/07/29 01:37:03;;;;;;;0.73;0.00;;;15.60;99.90;;;;;;5055656;28;20105;-73
2022/07/29 01:39:38;;;;;;;1.45;0.10;;;15.60;99.90;;;;;;5055610;28;20021;-73
2022/07/29 01:42:31;;;;;;;0.32;0.00;;;15.50;99.90;;;;;;5056179;28;20023;-73
2022/07/29 01:45:08;;;;;;;0.10;0.00;;;15.50;99.90;;;;;;5055422;28;20473;-72
2022/07/29 01:47:39;;;;;;;1.00;0.22;;;15.50;99.90;;;;;;5055266;28;20021;-72
2022/07/29 01:50:10;;;;;;;0.45;0.10;;;15.40;99.90;;;;;;5055745;28;20025;-72
2022/07/29 01:52:52;;;;;;;8.50;0.65;;;15.50;99.90;;;;;;5055463;28;20037;-72
2022/07/29 01:55:21;;;;;;;1.33;0.00;;;15.50;99.90;;;;;;5055546;28;20021;-72
2022/07/29 01:57:49;;;;;;;3.47;0.52;;;15.50;99.90;;;;;;5055305;28;20032;-72
2022/07/29 02:00:16;;;;;;;2.17;0.00;;;15.40;99.90;;;;;;5053793;28;20146;-72
2022/07/29 02:02:44;;;;;;;1.95;0.00;;;15.50;99.90;;;;;;5055977;28;20036;-73
2022/07/29 02:05:13;;;;;;;0.38;0.00;;;15.40;99.90;;;;;;5055107;28;20017;-73
2022/07/29 02:07:42;;;;;;;;;;;15.40;99.90;;;;;;5055589;28;20021;-72
2022/07/29 02:10:10;;;;;;;2.58;0.00;;;15.40;99.90;;;;;;5054858;28;19913;-72
2022/07/29 02:12:36;;;;;;;2.35;0.13;;;15.50;99.90;;;;;;5053862;28;20032;-72
2022/07/29 02:15:06;;;;;;;5.03;0.00;;;15.50;99.90;;;;;;5054783;28;20032;-72
2022/07/29 02:17:41;;;;;;;1.65;0.00;;;15.50;99.90;;;;;;5053614;28;20020;-72
2022/07/29 02:20:09;;;;;;;2.35;0.08;;;15.50;99.90;;;;;;5054758;28;20057;-72
2022/07/29 02:22:38;;;;;;;1.02;0.00;;;15.50;99.90;;;;;;5054627;28;20017;-72
2022/07/29 02:25:06;;;;;;;2.85;0.00;;;15.40;99.90;;;;;;5053463;28;20025;-72
2022/07/29 02:27:34;;;;;;;0.35;0.08;;;15.30;99.90;;;;;;5054094;28;20505;-72
2022/07/29 02:30:02;;;;;;;4.38;0.30;;;15.30;99.90;;;;;;5054413;28;20017;-73
2022/07/29 02:32:29;;;;;;;1.15;0.10;;;15.30;99.90;;;;;;5054515;28;20505;-73
2022/07/29 02:34:56;;;;;;;0.32;0.00;;;15.30;99.90;;;;;;5054508;28;20021;-73
2022/07/29 02:37:23;;;;;;;2.03;0.00;;;15.30;99.90;;;;;;5054779;28;20037;-73
2022/07/29 02:39:53;;;;;;;0.32;0.00;;;15.30;99.90;;;;;;5054373;28;20100;-73
2022/07/29 02:42:22;;;;;;;2.30;0.10;;;15.30;99.90;;;;;;5055019;28;20032;-73
2022/07/29 02:44:48;;;;;;;0.95;0.10;;;15.30;99.90;;;;;;5054485;28;20107;-73
2022/07/29 02:47:43;;;;;;;2.88;0.00;;;15.20;99.90;;;;;;5053897;28;20436;-73
2022/07/29 02:50:15;;;;;;;1.88;0.00;;;15.30;99.90;;;;;;5052266;28;20037;-72
2022/07/29 02:52:54;;;;;;;2.30;0.00;;;15.30;99.90;;;;;;5052898;28;20104;-72
2022/07/29 02:55:28;;;;;;;2.28;0.22;;;15.30;99.90;;;;;;5054384;28;20025;-72
2022/07/29 02:58:02;;;;;;;3.15;0.20;;;15.40;99.90;;;;;;5054357;28;20025;-72
2022/07/29 03:00:30;;;;;;;1.45;0.00;;;15.30;99.90;;;;;;5054019;28;20438;-72
2022/07/29 03:02:59;;;;;;;1.20;0.00;;;15.40;99.90;;;;;;5054174;28;20055;-72
2022/07/29 03:05:26;;;;;;;4.13;0.55;;;15.30;99.90;;;;;;5053858;28;20025;-73
2022/07/29 03:07:58;;;;;;;1.88;0.10;;;15.30;99.90;;;;;;5053642;28;20113;-73
2022/07/29 03:10:26;;;;;;;3.92;0.17;;;15.30;99.90;;;;;;5053859;28;20025;-73
2022/07/29 03:12:52;;;;;;;0.50;0.00;;;15.30;99.90;;;;;;5053792;28;20021;-73
2022/07/29 03:15:18;;;;;;;1.00;0.10;;;15.30;99.90;;;;;;5053719;28;20154;-73
2022/07/29 03:17:45;;;;;;;1.10;0.00;;;15.30;99.90;;;;;;5053760;28;20029;-73
2022/07/29 03:20:11;;;;;;;1.60;0.00;;;15.30;99.90;;;;;;5053553;28;20040;-73
2022/07/29 03:22:46;;;;;;;0.75;0.10;;;15.30;99.90;;;;;;5053599;28;20516;-73
2022/07/29 03:25:13;;;;;;;1.95;0.20;;;15.30;99.90;;;;;;5052297;28;20025;-73
2022/07/29 03:27:39;;;;;;;1.70;0.10;;;15.50;99.90;;;;;;5053726;28;20355;-73
2022/07/29 03:30:06;;;;;;;1.98;0.45;;;15.30;99.90;;;;;;5053766;28;20436;-73
2022/07/29 03:32:32;;;;;;;0.75;0.10;;;15.30;99.90;;;;;;5053433;28;20028;-73
2022/07/29 03:34:58;;;;;;;0.60;0.00;;;15.30;99.90;;;;;;5053423;28;20025;-73
2022/07/29 03:37:24;;;;;;;0.60;0.32;;;15.20;99.90;;;;;;5052173;28;20021;-73
2022/07/29 03:39:51;;;;;;;0.20;0.08;;;15.20;99.90;;;;;;5053251;28;20021;-72
2022/07/29 03:42:20;;;;;;;0.52;0.10;;;15.20;99.90;;;;;;5053948;28;20083;-72
2022/07/29 03:44:48;;;;;;;0.73;0.00;;;15.20;99.90;;;;;;5053911;28;20013;-72
2022/07/29 03:47:15;;;;;;;2.22;0.00;;;15.20;99.90;;;;;;5053336;28;20573;-72
2022/07/29 03:49:44;;;;;;;0.65;0.00;;;15.20;99.90;;;;;;5051914;28;20013;-72
2022/07/29 03:52:09;;;;;;;0.10;0.00;;;15.10;99.90;;;;;;5053317;28;20025;-72
2022/07/29 03:54:35;;;;;;;0.43;0.00;;;15.10;99.90;;;;;;5053171;28;20028;-72
2022/07/29 03:57:03;;;;;;;1.52;0.00;;;15.10;99.90;;;;;;5052916;28;20025;-72
2022/07/29 03:59:32;;;;;;;0.05;0.00;;;15.10;99.90;;;;;;5053211;28;20110;-72
2022/07/29 04:01:58;;;;;;;1.60;0.00;;;15.10;99.90;;;;;;5053135;28;20052;-72
2022/07/29 04:04:25;;;;;;;3.20;0.00;;;15.00;99.90;;;;;;5053169;28;20064;-72
2022/07/29 04:06:51;;;;;;;0.43;0.10;;;15.00;99.90;;;;;;5053093;28;20024;-72
2022/07/29 04:09:16;;;;;;;3.20;0.00;;;14.90;99.90;;;;;;5052922;28;20025;-72
2022/07/29 04:11:43;;;;;;;0.80;0.15;;;15.00;99.90;;;;;;5051707;28;20032;-72
2022/07/29 04:14:08;;;;;;;0.57;0.22;;;15.00;99.90;;;;;;5053009;28;20024;-72
2022/07/29 04:16:34;;;;;;;2.70;0.10;;;15.10;99.90;;;;;;5053026;28;20386;-72
2022/07/29 04:18:59;;;;;;;1.30;0.10;;;15.00;99.90;;;;;;5051723;28;20025;-72
2022/07/29 04:21:25;;;;;;;1.98;0.25;;;15.00;99.90;;;;;;5051600;28;20367;-72
2022/07/29 04:23:51;;;;;;;0.25;0.00;;;15.10;99.90;;;;;;5052961;28;20457;-72
2022/07/29 04:26:17;;;;;;;1.35;0.10;;;15.10;99.90;;;;;;5051733;28;20029;-72
2022/07/29 04:28:43;;;;;;;1.10;0.10;;;15.00;99.90;;;;;;5053085;28;20124;-72
2022/07/29 04:31:10;;;;;;;1.55;0.00;;;15.10;99.90;;;;;;5053053;28;20040;-72
2022/07/29 04:33:35;;;;;;;0.65;0.05;;;15.10;99.90;;;;;;5053087;28;20477;-72
2022/07/29 04:36:01;;;;;;;1.27;0.10;;;15.10;99.90;;;;;;5052983;28;20013;-73
2022/07/29 04:38:26;;;;;;;4.88;0.47;;;15.10;99.90;;;;;;5052834;28;20032;-72
2022/07/29 04:40:52;;;;;;;5.93;0.03;;;15.10;99.90;;;;;;5053001;28;20024;-72
2022/07/29 04:43:18;;;;;;;0.80;0.00;;;15.10;99.90;;;;;;5052678;28;20025;-72
2022/07/29 04:45:43;;;;;;;0.52;0.10;;;15.10;99.90;;;;;;5052709;28;20021;-72
2022/07/29 04:48:09;;;;;;;2.55;0.00;;;15.20;99.90;;;;;;5052581;28;20021;-72
2022/07/29 04:50:38;;;;;;;0.10;0.00;;;15.20;99.90;;;;;;5052592;28;20028;-72
2022/07/29 04:53:04;;;;;;;0.32;0.00;;;15.20;99.90;;;;;;5052725;28;20032;-73
2022/07/29 04:55:29;;;;;;;4.30;0.43;;;15.20;99.90;;;;;;5052964;28;20022;-73
2022/07/29 04:57:55;;;;;;;1.80;0.10;;;15.20;99.90;;;;;;5052695;28;20500;-72
2022/07/29 05:00:20;;;;;;;0.57;0.20;;;15.30;99.90;;;;;;5052555;28;20021;-72
2022/07/29 05:02:46;;;;;;;1.88;0.00;;;15.30;99.90;;;;;;5052535;28;20029;-72
2022/07/29 05:05:11;;;;;;;2.92;0.30;;;15.30;99.90;;;;;;5052522;28;20111;-72
2022/07/29 05:07:37;;;;;;;1.83;0.15;;;15.40;99.90;;;;;;5051153;28;20021;-72
2022/07/29 05:10:03;;;;;;;1.58;0.08;;;15.40;99.90;;;;;;5055135;28;20025;-72
2022/07/29 05:12:29;;;;;;;1.45;0.00;;;15.50;99.90;;;;;;5056249;28;20102;-73
2022/07/29 05:14:54;;;;;;;2.90;0.10;;;15.50;99.90;;;;;;5054886;28;20062;-72
2022/07/29 05:17:20;;;;;;;0.10;0.00;;;15.50;99.90;;;;;;5055957;28;20425;-73
2022/07/29 05:19:46;;;;;;;0.55;0.15;;;15.60;99.90;;;;;;5055939;28;20060;-72
2022/07/29 05:22:11;;;;;;;0.63;0.00;;;15.60;99.90;;;;;;5055951;28;20021;-73
2022/07/29 05:24:37;;;;;;;0.65;0.20;;;15.60;99.90;;;;;;5056390;28;20025;-73
2022/07/29 05:27:02;;;;;;;0.40;0.00;;;15.70;99.90;;;;;;5054592;28;20060;-73
2022/07/29 05:29:28;;;;;;;1.17;0.17;;;15.70;99.90;;;;;;5055755;28;20021;-73
2022/07/29 05:31:53;;;;;;;0.95;0.00;;;15.70;99.90;;;;;;5055567;28;20392;-73
2022/07/29 05:34:19;;;;;;;0.57;0.03;;;15.70;99.90;;;;;;5055898;28;20021;-73
2022/07/29 05:36:45;;;;;;;0.77;0.00;;;15.70;99.90;;;;;;5055921;28;20100;-72
2022/07/29 05:39:12;;;;;;;2.28;0.10;;;15.70;99.90;;;;;;5056123;28;20028;-72
2022/07/29 05:41:38;;;;;;;3.95;0.10;;;15.70;99.90;;;;;;5055518;28;20078;-73
2022/07/29 05:44:04;;;;;;;1.00;0.00;;;15.80;99.90;;;;;;5055359;28;20056;-73
2022/07/29 05:46:30;;;;;;;1.80;0.25;;;15.80;99.90;;;;;;5054197;28;20068;-72
2022/07/29 05:48:56;;;;;;;2.70;0.03;;;15.80;99.90;;;;;;5055555;28;20021;-73
2022/07/29 05:51:21;;;;;;;1.15;0.00;;;15.80;99.90;;;;;;5055330;28;20029;-73
2022/07/29 05:53:47;;;;;;;0.40;0.00;;;16.00;99.90;;;;;;5055616;28;20020;-73
2022/07/29 05:56:12;;;;;;;1.65;0.10;;;15.80;99.90;;;;;;5055260;28;20017;-73
2022/07/29 05:58:38;;;;;;;3.40;0.17;;;15.80;99.90;;;;;;5055466;28;20482;-73
2022/07/29 06:01:03;;;;;;;1.88;0.00;;;15.90;99.90;;;;;;5053740;28;20030;-73
2022/07/29 06:03:30;;;;;;;1.63;0.10;;;15.90;99.90;;;;;;5055091;28;20023;-73
2022/07/29 06:05:55;;;;;;;3.75;0.30;;;15.90;99.90;;;;;;5055089;28;20029;-73
2022/07/29 06:08:21;;;;;;;0.20;0.10;;;16.00;99.90;;;;;;5054989;28;20036;-75
2022/07/29 06:10:47;;;;;;;2.88;0.32;;;16.00;99.90;;;;;;5053625;28;20104;-74
2022/07/29 06:13:15;;;;;;;12.25;0.73;;;16.00;99.90;;;;;;5054913;28;20080;-74
2022/07/29 06:15:41;;;;;;;0.20;0.00;;;16.20;99.90;;;;;;5054860;28;20025;-74
2022/07/29 06:18:08;;;;;;;2.47;0.10;;;16.10;99.90;;;;;;5054905;28;20075;-74
2022/07/29 06:20:34;;;;;;;1.13;0.30;;;16.20;99.90;;;;;;5052478;28;20028;-76
2022/07/29 06:23:00;;;;;;;2.60;0.10;;;16.30;99.90;;;;;;5054762;28;20032;-75
2022/07/29 06:25:28;;;;;;;1.58;0.00;;;16.40;99.90;;;;;;5055072;28;20485;-73
2022/07/29 06:27:54;;;;;;;0.00;0.00;;;16.60;99.90;;;;;;5054664;28;20032;-73
2022/07/29 06:30:20;;;;;;;1.88;0.13;;;16.90;99.90;;;;;;5054674;28;20474;-73
2022/07/29 06:32:46;;;;;;;2.80;0.40;;;17.10;99.90;;;;;;5053259;28;20025;-73
2022/07/29 06:35:12;;;;;;;2.78;0.38;;;17.20;99.90;;;;;;5054443;28;20021;-73
2022/07/29 06:37:37;;;;;;;0.50;0.00;;;17.40;99.90;;;;;;5054416;28;20031;-73
2022/07/29 06:42:47;;;;;;;3.67;0.35;;;17.80;99.90;;;;;;5054381;28;20567;-73
2022/07/29 06:45:14;;;;;;;1.08;0.00;;;17.80;99.90;;;;;;5054332;28;20024;-73
2022/07/29 06:47:39;;;;;;;1.13;0.10;;;17.90;99.90;;;;;;5052901;28;20028;-73
2022/07/29 06:50:06;;;;;;;2.22;0.00;;;18.00;99.90;;;;;;5054655;28;20029;-73
2022/07/29 06:52:31;;;;;;;0.10;0.00;;;18.10;99.90;;;;;;5054210;28;20033;-73
2022/07/29 06:54:57;;;;;;;0.20;0.00;;;18.20;99.90;;;;;;5054156;28;20060;-74
2022/07/29 06:57:22;;;;;;;0.20;0.03;;;18.40;99.90;;;;;;5054108;28;20025;-74
2022/07/29 06:59:48;;;;;;;2.53;0.08;;;18.60;99.90;;;;;;5054510;28;20454;-74
2022/07/29 07:02:14;;;;;;;0.65;0.00;;;18.60;99.90;;;;;;5053856;28;20013;-73
2022/07/29 07:04:39;;;;;;;3.88;0.30;;;18.70;99.90;;;;;;5053924;28;20021;-74
2022/07/29 07:07:05;;;;;;;1.13;0.00;;;18.80;99.90;;;;;;5054116;28;20021;-74
2022/07/29 07:09:30;;;;;;;3.03;0.00;;;18.80;99.90;;;;;;5104798;22;20397;-73
2022/07/29 07:11:56;;;;;;;1.77;0.00;;;18.70;99.90;;;;;;5114359;28;20084;-73
2022/07/29 07:14:21;;;;;;;0.65;0.15;;;18.60;99.90;;;;;;5113192;28;20022;-73
2022/07/29 07:16:47;;;;;;;0.10;0.00;;;18.40;99.90;;;;;;5114653;28;20406;-73
2022/07/29 07:19:13;;;;;;;1.67;0.13;;;18.40;99.90;;;;;;5113066;28;20480;-73
2022/07/29 07:21:38;;;;;;;3.65;0.00;;;18.30;99.90;;;;;;5112881;28;20020;-73
2022/07/29 07:24:04;;;;;;;2.03;0.00;;;18.40;99.90;;;;;;5114222;28;20015;-73
2022/07/29 07:26:30;;;;;;;1.95;0.00;;;18.50;99.90;;;;;;5114367;28;20035;-73
2022/07/29 07:28:56;;;;;;;1.73;0.08;;;18.60;99.90;;;;;;5114118;28;20032;-73
2022/07/29 07:31:21;;;;;;;1.67;0.08;;;18.80;99.90;;;;;;5114156;28;20098;-73
2022/07/29 07:33:47;;;;;;;1.25;0.00;;;19.00;99.90;;;;;;5114108;28;20019;-73
2022/07/29 07:36:12;;;;;;;3.88;0.28;;;19.40;99.90;;;;;;5114622;28;20487;-73
2022/07/29 07:38:38;;;;;;;0.45;0.00;;;19.60;99.90;;;;;;5114048;28;20019;-73
2022/07/29 07:41:03;;;;;;;0.75;0.00;;;19.70;99.90;;;;;;5112643;28;20084;-73
2022/07/29 07:43:29;;;;;;;0.57;0.10;;;20.00;99.90;;;;;;5112679;28;20496;-73
2022/07/29 07:45:55;;;;;;;2.17;0.10;;;20.20;99.90;;;;;;5113870;28;20023;-73
2022/07/29 07:48:20;;;;;;;2.83;0.10;;;20.50;99.70;;;;;;5113840;28;20055;-73
2022/07/29 07:50:46;;;;;;;0.68;0.00;;;20.60;99.10;;;;;;5113801;28;20020;-73
2022/07/29 07:53:12;;;;;;;3.80;0.10;;;20.80;98.80;;;;;;5113781;28;20034;-73
2022/07/29 07:55:43;;;;;;;1.58;0.15;;;21.00;98.20;;;;;;5114118;28;20019;-73
2022/07/29 07:58:09;;;;;;;2.00;0.05;;;21.30;98.20;;;;;;5114309;28;20027;-73
2022/07/29 08:00:35;;;;;;;1.05;0.00;;;21.50;96.80;;;;;;5113933;28;20020;-74
2022/07/29 08:03:01;;;;;;;0.65;0.17;;;21.60;95.90;;;;;;5113767;28;20023;-74
2022/07/29 08:05:27;;;;;;;1.98;0.20;;;21.70;95.70;;;;;;5113648;28;20034;-75
2022/07/29 08:07:52;;;;;;;1.48;0.00;;;21.70;94.90;;;;;;5113321;28;20111;-74
2022/07/29 08:13:08;;;;;;;2.65;0.10;;;21.20;94.90;;;;;;5113823;28;20515;-73
2022/07/29 08:15:38;;;;;;;1.23;0.00;;;20.90;95.90;;;;;;5112087;28;20102;-73
2022/07/29 08:18:04;;;;;;;0.77;0.00;;;20.80;95.70;;;;;;5114179;28;20464;-73
2022/07/29 08:20:31;;;;;;;4.05;0.10;;;20.70;96.00;;;;;;5112187;28;20030;-73
2022/07/29 08:22:57;;;;;;;2.00;0.00;;;20.60;96.30;;;;;;5112203;28;20020;-73
2022/07/29 08:25:22;;;;;;;4.30;0.20;;;20.60;96.20;;;;;;5113454;28;20039;-73
2022/07/29 08:27:48;;;;;;;1.20;0.30;;;20.60;95.90;;;;;;5113722;28;20091;-73
2022/07/29 08:30:14;;;;;;;2.22;0.55;;;20.60;96.00;;;;;;5113420;28;20020;-73
2022/07/29 08:32:39;;;;;;;1.00;0.17;;;20.70;96.10;;;;;;5113401;28;20023;-73
2022/07/29 08:35:05;;;;;;;0.20;0.00;;;20.70;95.70;;;;;;5113347;28;20020;-73
2022/07/29 08:37:31;;;;;;;1.02;0.00;;;20.70;95.80;;;;;;5114042;28;20019;-73
2022/07/29 08:39:56;;;;;;;2.08;0.05;;;20.80;96.20;;;;;;5113445;28;20016;-73
2022/07/29 08:42:22;;;;;;;0.63;0.00;;;20.70;94.70;;;;;;5113493;28;20022;-73
2022/07/29 08:44:48;;;;;;;0.85;0.00;;;20.80;96.20;;;;;;5116589;28;20529;-73
2022/07/29 08:47:14;;;;;;;2.47;0.43;;;21.00;96.40;;;;;;5117773;28;20491;-73
2022/07/29 08:49:40;;;;;;;0.52;0.08;;;21.20;95.20;;;;;;5115863;28;20156;-73
2022/07/29 08:52:06;;;;;;;2.85;0.10;;;21.30;94.10;;;;;;5117380;28;20472;-73
2022/07/29 08:54:32;;;;;;;1.02;0.20;;;21.20;94.40;;;;;;5115833;28;20016;-73
2022/07/29 08:56:58;;;;;;;0.47;0.00;;;21.50;95.40;;;;;;5117095;28;20023;-73
2022/07/29 08:59:26;;;;;;;3.55;0.08;;;21.80;95.30;;;;;;5117112;28;20544;-73
2022/07/29 09:01:54;;;;;;;1.42;0.05;;;22.10;94.10;;;;;;5116933;28;20073;-72
2022/07/29 09:04:20;;;;;;;1.35;0.45;;;22.10;93.40;;;;;;5115285;28;20058;-73
2022/07/29 09:06:51;;;;;;;1.85;0.00;;;22.30;94.30;;;;;;5116880;28;20026;-73
2022/07/29 09:09:16;;;;;;;2.88;0.10;;;22.40;93.80;;;;;;5116629;28;20495;-73
2022/07/29 09:11:43;;;;;;;2.15;0.10;;;22.50;93.20;;;;;;5115516;28;20023;-73
2022/07/29 09:14:10;;;;;;;4.32;0.00;;;22.60;94.30;;;;;;5116725;28;20028;-73
2022/07/29 09:16:47;;;;;;;2.03;0.00;;;22.50;93.70;;;;;;5116914;28;20107;-73
2022/07/29 09:19:31;;;;;;;1.30;0.22;;;22.40;94.80;;;;;;5116756;28;20054;-73
2022/07/29 09:21:59;;;;;;;1.80;0.22;;;22.50;94.00;;;;;;5115309;28;20031;-73
2022/07/29 09:24:38;;;;;;;1.35;0.10;;;22.70;93.40;;;;;;5116943;28;20102;-73
2022/07/29 09:27:17;;;;;;;1.70;0.20;;;23.00;92.90;;;;;;5116861;28;20020;-73
2022/07/29 09:29:43;;;;;;;1.88;0.75;;;23.10;91.90;;;;;;5116391;28;20028;-73
2022/07/29 09:32:10;;;;;;;3.42;0.10;;;23.40;92.50;;;;;;5116698;28;20022;-73
2022/07/29 09:34:36;;;;;;;0.28;0.08;;;23.40;90.50;;;;;;5115143;28;20042;-73
2022/07/29 09:37:02;;;;;;;10.10;0.20;;;23.60;91.00;;;;;;5116653;28;20016;-73
2022/07/29 09:39:33;;;;;;;0.60;0.03;;;23.80;90.50;;;;;;5115049;28;20089;-74
2022/07/29 09:42:05;;;;;;;1.90;0.08;;;24.00;91.40;;;;;;5114961;28;20091;-73
2022/07/29 09:44:45;;;;;;;1.73;0.10;;;24.10;90.70;;;;;;5117051;28;20036;-73
2022/07/29 09:47:11;;;;;;;3.15;0.93;;;24.40;89.10;;;;;;5116067;28;20027;-73
2022/07/29 09:49:59;;;;;;;0.52;0.10;;;24.50;88.90;;;;;;5115919;28;20496;-73
2022/07/29 09:52:29;;;;;;;1.40;0.13;;;24.60;86.80;;;;;;5116029;28;20433;-73
2022/07/29 09:55:06;;;;;;;0.75;0.10;;;24.40;82.30;;;;;;5115824;28;20544;-73
2022/07/29 09:57:31;;;;;;;1.65;0.00;;;24.30;86.30;;;;;;5116262;28;20381;-73
2022/07/29 09:59:57;;;;;;;2.17;0.00;;;24.10;81.80;;;;;;5114566;28;20072;-73
2022/07/29 10:02:27;;;;;;;2.75;0.20;;;23.90;83.30;;;;;;5114506;28;20135;-73
2022/07/29 10:04:52;;;;;;;0.65;0.05;;;23.80;82.00;;;;;;5114519;28;20156;-73
2022/07/29 10:07:19;;;;;;;2.63;0.40;;;23.80;84.00;;;;;;5114388;28;20080;-73
2022/07/29 10:09:55;;;;;;;1.35;0.40;;;23.90;88.40;;;;;;5115487;28;20032;-73
2022/07/29 10:12:22;;;;;;;1.95;0.20;;;24.10;87.80;;;;;;5114246;28;20012;-73
2022/07/29 10:14:49;;;;;;;0.43;0.00;;;24.20;83.70;;;;;;5115580;28;20020;-73
2022/07/29 10:17:16;;;;;;;0.80;0.00;;;24.10;84.60;;;;;;5115778;28;20023;-74
2022/07/29 10:19:42;;;;;;;1.08;0.00;;;24.30;86.30;;;;;;5115376;28;20578;-73
2022/07/29 10:22:09;;;;;;;1.00;0.22;;;24.80;87.30;;;;;;5115299;28;20030;-73
2022/07/29 10:24:37;;;;;;;0.85;0.00;;;25.20;84.70;;;;;;5113990;28;20426;-73
2022/07/29 10:27:05;;;;;;;3.43;0.30;;;25.20;82.40;;;;;;5115343;28;20103;-73
2022/07/29 10:29:31;;;;;;;2.58;0.00;;;25.50;80.20;;;;;;5115157;28;20020;-73
2022/07/29 10:32:25;;;;;;;1.75;0.43;;;25.60;76.90;;;;;;5115119;28;20488;-73
2022/07/29 10:35:15;;;;;;;4.15;0.03;;;25.70;78.50;;;;;;5115153;28;20043;-73
2022/07/29 10:37:59;;;;;;;2.72;0.20;;;25.70;79.50;;;;;;5115354;28;20016;-73
2022/07/29 10:43:35;;;;;;;3.50;0.10;;;26.00;82.10;;;;;;5115480;28;20088;-74
2022/07/29 10:46:02;;;;;;;0.50;0.00;;;26.00;81.80;;;;;;5113701;28;20053;-74
2022/07/29 10:48:29;;;;;;;3.20;0.45;;;25.90;75.70;;;;;;5114937;28;20077;-73
2022/07/29 10:51:02;;;;;;;5.00;0.00;;;25.80;76.50;;;;;;5115041;28;20373;-74
2022/07/29 10:53:49;;;;;;;1.77;0.03;;;25.80;78.20;;;;;;5115155;28;20143;-74
2022/07/29 10:56:33;;;;;;;0.65;0.10;;;25.90;81.80;;;;;;5114782;28;20080;-74
2022/07/29 10:59:20;;;;;;;3.03;0.10;;;25.90;83.30;;;;;;5113472;28;20045;-73
2022/07/29 11:01:50;;;;;;;1.40;0.25;;;25.80;84.20;;;;;;5114566;28;20484;-74
2022/07/29 11:04:35;;;;;;;0.90;0.30;;;25.70;84.20;;;;;;5114738;28;20544;-74
2022/07/29 11:07:07;;;;;;;2.47;0.10;;;25.50;86.10;;;;;;5114634;28;20372;-74
2022/07/29 11:09:33;;;;;;;0.98;0.10;;;25.30;86.30;;;;;;5114339;28;20572;-74
2022/07/29 11:12:00;;;;;;;1.00;0.00;;;25.20;88.30;;;;;;5114193;28;20053;-74
2022/07/29 11:14:54;;;;;;;1.85;0.52;;;25.20;87.30;;;;;;5114550;28;20047;-74
2022/07/29 11:17:20;;;;;;;3.00;0.20;;;25.50;86.10;;;;;;5113106;28;20027;-74
2022/07/29 11:19:46;;;;;;;2.58;0.00;;;25.80;86.60;;;;;;5112935;28;20159;-74
2022/07/29 11:22:32;;;;;;;1.58;0.10;;;25.90;87.70;;;;;;5114270;28;20019;-74
2022/07/29 11:25:17;;;;;;;1.23;0.00;;;25.90;86.30;;;;;;5114285;28;20176;-74
2022/07/29 11:27:44;;;;;;;0.32;0.00;;;26.20;86.90;;;;;;5114299;28;20019;-74
2022/07/29 11:30:11;;;;;;;3.13;0.25;;;26.30;84.20;;;;;;5114137;28;20429;-74
2022/07/29 11:32:42;;;;;;;5.05;0.28;;;26.60;84.80;;;;;;5114122;28;20028;-74
2022/07/29 11:35:17;;;;;;;0.95;0.00;;;26.70;83.10;;;;;;5113591;28;20518;-74
2022/07/29 11:37:43;;;;;;;3.45;0.00;;;26.80;84.60;;;;;;5112837;28;20034;-74
2022/07/29 11:40:11;;;;;;;3.22;0.20;;;27.10;82.00;;;;;;5114321;28;20102;-74
2022/07/29 11:42:38;;;;;;;0.95;0.20;;;27.30;79.00;;;;;;5112563;28;20024;-74
2022/07/29 11:45:17;;;;;;;1.05;0.00;;;27.30;79.20;;;;;;5112656;28;20027;-74
2022/07/29 11:47:49;;;;;;;2.22;0.00;;;27.40;80.30;;;;;;5114197;28;20020;-74
2022/07/29 11:50:33;;;;;;;1.52;0.10;;;27.50;77.50;;;;;;5112560;28;20031;-74
2022/07/29 11:53:00;;;;;;;1.02;0.17;;;27.60;78.00;;;;;;5113918;28;20020;-74
2022/07/29 11:55:25;;;;;;;2.83;0.22;;;27.90;76.40;;;;;;5113806;28;20016;-74
2022/07/29 11:57:54;;;;;;;2.03;0.30;;;28.00;77.20;;;;;;5113765;28;20030;-74
2022/07/29 12:00:31;;;;;;;1.85;0.22;;;28.10;74.70;;;;;;5112427;28;20023;-74
2022/07/29 12:02:59;;;;;;;1.65;0.00;;;28.00;74.20;;;;;;5112525;28;20080;-74
2022/07/29 12:05:54;;;;;;;3.90;0.35;;;28.10;73.60;;;;;;5113694;28;20058;-74
2022/07/29 12:08:25;;;;;;;3.45;0.13;;;28.10;74.40;;;;;;5095275;28;20040;-74
2022/07/29 12:10:52;;;;;;;2.25;0.55;;;28.40;75.00;;;;;;5113603;28;20069;-74
2022/07/29 12:13:20;;;;;;;1.13;0.00;;;28.50;70.60;;;;;;5112326;28;20020;-74
2022/07/29 12:15:53;;;;;;;1.80;0.20;;;28.60;72.30;;;;;;5113840;28;20023;-74
2022/07/29 12:18:20;;;;;;;2.08;0.22;;;28.70;73.20;;;;;;5112868;28;20492;-74
2022/07/29 12:20:47;;;;;;;2.53;0.17;;;28.90;73.50;;;;;;5116430;28;20077;-74
2022/07/29 12:23:16;;;;;;;2.58;0.30;;;29.00;69.70;;;;;;5118225;28;20111;-74
2022/07/29 12:25:43;;;;;;;2.65;0.00;;;29.20;71.00;;;;;;5118030;28;20030;-74
2022/07/29 12:28:15;;;;;;;4.28;0.35;;;29.40;71.30;;;;;;5116374;28;20494;-75
2022/07/29 12:30:41;;;;;;;1.00;0.00;;;29.60;69.70;;;;;;5117506;28;20454;-74
2022/07/29 12:33:24;;;;;;;1.20;0.15;;;29.90;70.40;;;;;;5116237;28;20027;-75
2022/07/29 12:35:58;;;;;;;2.17;0.00;;;29.90;69.10;;;;;;5118115;28;20487;-74
2022/07/29 12:38:24;;;;;;;2.40;0.00;;;30.00;67.00;;;;;;5117582;28;20030;-74
2022/07/29 12:40:52;;;;;;;2.28;0.03;;;30.00;67.00;;;;;;5117324;28;20024;-75
2022/07/29 12:43:24;;;;;;;0.47;0.00;;;30.10;66.20;;;;;;5117640;28;20019;-75
2022/07/29 12:45:55;;;;;;;0.68;0.00;;;30.30;65.40;;;;;;5117497;28;20019;-74
2022/07/29 12:48:35;;;;;;;0.68;0.00;;;30.40;65.30;;;;;;5117496;28;20498;-75
2022/07/29 12:51:02;;;;;;;0.88;0.05;;;30.50;66.30;;;;;;5116015;28;20016;-74
2022/07/29 12:53:28;;;;;;;1.23;0.00;;;30.90;63.40;;;;;;5117216;28;20068;-75
2022/07/29 12:55:56;;;;;;;1.35;0.00;;;30.90;62.80;;;;;;5116978;28;20076;-74
2022/07/29 12:58:32;;;;;;;1.58;0.00;;;30.50;61.90;;;;;;5115827;28;20032;-74
2022/07/29 13:01:04;;;;;;;0.68;0.00;;;30.50;64.70;;;;;;5115714;28;20500;-74
2022/07/29 13:03:46;;;;;;;0.98;0.00;;;30.90;62.10;;;;;;5117236;28;20388;-74
2022/07/29 13:06:40;;;;;;;0.98;0.00;;;30.90;62.10;;;;;;5116947;28;20024;-75